Time;durP1;ratioP1;P1;durP2;ratioP2;P2;SDS_P1;SDS_P2;PMS_P1;PMS_P2;Temp;Humidity;BMP_temperature;BMP_pressure;BME280_temperature;BME280_humidity;BME280_pressure;Samples;Min_cycle;Max_cycle;Signal;HPM_P1;HPM_P2
2021/03/21 00:02:19;;;;;;;5.67;5.00;;;;;;;7.90;65.82;100918.44;5081242;28;20472;-64
2021/03/21 00:04:45;;;;;;;5.50;4.90;;;;;;;8.00;65.79;100915.97;5083337;28;20491;-64
2021/03/21 00:07:11;;;;;;;6.57;5.87;;;;;;;7.99;65.87;100911.63;5080392;28;20961;-64
2021/03/21 00:09:38;;;;;;;6.30;5.60;;;;;;;7.95;66.30;100913.66;5082152;28;20451;-64
2021/03/21 00:12:05;;;;;;;6.77;5.60;;;;;;;7.85;66.87;100910.75;5081149;28;20480;-64
2021/03/21 00:14:31;;;;;;;6.47;5.87;;;;;;;8.37;65.46;100913.38;5092956;28;20478;-64
2021/03/21 00:16:59;;;;;;;6.73;5.67;;;;;;;8.08;66.57;100919.78;5089394;28;20490;-64
2021/03/21 00:19:25;;;;;;;7.40;5.73;;;;;;;8.03;67.16;100916.59;5094668;28;20443;-64
2021/03/21 00:21:52;;;;;;;6.23;5.53;;;;;;;8.05;67.16;100920.00;5100633;28;21128;-64
2021/03/21 00:24:18;;;;;;;6.00;5.40;;;;;;;8.03;67.50;100905.09;5099687;28;20493;-64
2021/03/21 00:26:44;;;;;;;6.30;5.63;;;;;;;7.80;68.13;100902.25;5099235;28;20486;-64
2021/03/21 00:29:10;;;;;;;6.10;5.50;;;;;;;7.81;68.79;100900.41;5101297;28;20446;-64
2021/03/21 00:31:37;;;;;;;6.37;5.30;;;;;;;8.18;67.33;100897.84;5094277;28;20483;-63
2021/03/21 00:34:04;;;;;;;6.87;5.97;;;;;;;8.11;67.91;100903.59;5093116;28;20443;-64
2021/03/21 00:36:31;;;;;;;7.60;6.20;;;;;;;8.32;67.21;100911.03;5096249;28;20486;-64
2021/03/21 00:38:57;;;;;;;6.43;5.77;;;;;;;7.89;69.00;100906.06;5080498;28;20454;-64
2021/03/21 00:41:25;;;;;;;7.27;6.37;;;;;;;8.05;68.76;100884.53;5080820;28;20479;-64
2021/03/21 00:43:54;;;;;;;6.93;6.10;;;;;;;7.97;69.43;100882.44;5086710;28;20454;-64
2021/03/21 00:46:20;;;;;;;7.60;6.20;;;;;;;8.24;68.68;100879.59;5100717;28;20470;-64
2021/03/21 00:48:46;;;;;;;7.67;6.47;;;;;;;7.91;69.54;100875.69;5084977;28;20448;-64
2021/03/21 00:51:15;;;;;;;8.53;6.10;;;;;;;8.23;68.63;100867.25;5080259;28;20476;-64
2021/03/21 00:53:43;;;;;;;9.03;7.03;;;;;;;8.34;68.29;100874.47;5082053;28;20452;-64
2021/03/21 00:56:11;;;;;;;11.20;6.73;;;;;;;8.24;68.83;100868.94;5099652;28;20474;-64
2021/03/21 00:58:37;;;;;;;9.07;7.13;;;;;;;7.93;69.99;100856.97;5100598;28;20488;-64
2021/03/21 01:01:05;;;;;;;8.97;6.67;;;;;;;7.83;70.25;100845.25;5100182;28;20475;-64
2021/03/21 01:03:31;;;;;;;8.53;6.90;;;;;;;7.70;70.81;100837.28;5095363;28;20497;-64
2021/03/21 01:05:59;;;;;;;9.53;7.17;;;;;;;7.64;71.04;100838.59;5100486;28;20467;-64
2021/03/21 01:08:30;;;;;;;8.73;6.40;;;;;;;8.00;69.97;100839.63;5098403;28;21102;-64
2021/03/21 01:10:57;;;;;;;9.03;6.63;;;;;;;8.14;69.52;100841.25;5100843;28;20470;-64
2021/03/21 01:13:24;;;;;;;9.37;6.93;;;;;;;8.12;69.53;100829.88;5095063;28;20455;-64
2021/03/21 01:15:51;;;;;;;6.53;5.80;;;;;;;8.28;68.77;100825.16;5084105;28;20467;-64
2021/03/21 01:18:18;;;;;;;8.07;6.97;;;;;;;8.23;68.67;100819.31;5091818;28;20503;-64
2021/03/21 01:20:45;;;;;;;6.90;6.03;;;;;;;8.21;69.07;100823.03;5092408;28;20508;-64
2021/03/21 01:23:11;;;;;;;7.80;5.90;;;;;;;7.85;70.04;100812.25;5101600;28;20500;-64
2021/03/21 01:25:39;;;;;;;7.17;5.97;;;;;;;8.05;69.42;100821.47;5103907;28;20470;-64
2021/03/21 01:28:19;;;;;;;7.20;5.90;;;;;;;8.25;68.82;100822.69;5101518;28;20440;-63
2021/03/21 01:30:45;;;;;;;9.33;7.10;;;;;;;8.07;69.10;100821.34;5103862;28;20494;-64
2021/03/21 01:33:11;;;;;;;6.33;5.70;;;;;;;8.26;68.83;100816.44;5102849;28;20443;-63
2021/03/21 01:35:37;;;;;;;8.63;5.70;;;;;;;8.24;69.14;100820.16;5084614;28;20471;-64
2021/03/21 01:38:03;;;;;;;8.27;6.40;;;;;;;8.12;69.25;100808.56;5086075;28;21019;-64
2021/03/21 01:40:30;;;;;;;7.53;6.03;;;;;;;8.11;69.18;100799.72;5103213;28;20994;-64
2021/03/21 01:42:57;;;;;;;6.03;5.37;;;;;;;7.90;70.16;100803.94;5103112;28;20458;-63
2021/03/21 01:45:40;;;;;;;7.70;6.30;;;;;;;8.31;69.08;100794.75;5083167;28;20472;-64
2021/03/21 01:48:13;;;;;;;8.53;7.10;;;;;;;7.99;69.83;100778.47;5084854;28;20419;-64
2021/03/21 01:50:47;;;;;;;8.20;6.40;;;;;;;8.00;70.26;100777.50;5102406;28;20493;-64
2021/03/21 01:53:14;;;;;;;6.93;6.20;;;;;;;7.75;70.73;100776.59;5101732;28;20454;-63
2021/03/21 01:55:40;;;;;;;7.40;6.30;;;;;;;8.18;69.63;100776.16;5092065;28;20463;-64
2021/03/21 01:58:08;;;;;;;7.43;6.00;;;;;;;8.26;69.36;100762.28;5092458;28;20468;-65
2021/03/21 02:00:36;;;;;;;8.50;6.57;;;;;;;8.38;68.78;100757.84;5083165;28;20470;-65
2021/03/21 02:03:03;;;;;;;6.63;5.80;;;;;;;8.37;68.76;100753.50;5084935;28;20455;-64
2021/03/21 02:05:29;;;;;;;8.07;7.03;;;;;;;8.06;69.85;100753.09;5084377;28;20464;-64
2021/03/21 02:08:20;;;;;;;8.17;6.10;;;;;;;8.41;68.48;100753.16;5084061;28;20968;-64
2021/03/21 02:10:54;;;;;;;7.90;6.57;;;;;;;8.08;69.91;100735.19;5082662;28;20540;-64
2021/03/21 02:13:23;;;;;;;6.80;6.10;;;;;;;7.73;71.23;100722.63;5102559;28;20475;-64
2021/03/21 02:15:52;;;;;;;7.20;6.50;;;;;;;7.42;72.18;100724.81;5102688;28;20474;-64
2021/03/21 02:18:27;;;;;;;6.40;5.80;;;;;;;8.03;70.32;100714.22;5083146;28;20428;-64
2021/03/21 02:21:15;;;;;;;6.90;6.00;;;;;;;7.81;71.24;100712.28;5082688;28;20502;-64
2021/03/21 02:24:09;;;;;;;6.33;5.43;;;;;;;7.95;70.82;100713.94;5082684;28;20451;-64
2021/03/21 02:26:52;;;;;;;6.30;5.30;;;;;;;7.78;71.08;100699.19;5080300;28;20517;-64
2021/03/21 02:29:27;;;;;;;5.00;4.23;;;;;;;8.05;70.41;100695.47;5083011;28;20455;-64
2021/03/21 02:31:56;;;;;;;5.90;5.30;;;;;;;7.78;70.94;100699.19;5098294;28;20471;-64
2021/03/21 02:34:29;;;;;;;4.60;4.20;;;;;;;7.66;71.88;100702.75;5103113;28;20817;-64
2021/03/21 02:37:01;;;;;;;4.80;4.30;;;;;;;7.86;70.97;100699.50;5085919;28;20802;-64
2021/03/21 02:39:35;;;;;;;4.90;4.30;;;;;;;7.84;71.16;100706.72;5088557;28;20447;-65
2021/03/21 02:42:05;;;;;;;5.90;4.63;;;;;;;7.80;71.04;100707.06;5102796;28;20470;-65
2021/03/21 02:44:36;;;;;;;5.20;4.00;;;;;;;7.98;70.46;100705.72;5101369;28;20471;-64
2021/03/21 02:47:08;;;;;;;5.97;4.43;;;;;;;7.98;70.68;100711.03;5102866;28;20498;-64
2021/03/21 02:49:37;;;;;;;6.33;4.33;;;;;;;7.98;70.96;100704.88;5098659;28;20447;-64
2021/03/21 02:52:07;;;;;;;5.40;4.87;;;;;;;8.24;69.97;100698.47;5100218;28;20496;-64
2021/03/21 02:54:37;;;;;;;5.63;4.77;;;;;;;8.16;70.04;100692.88;5102616;28;20512;-64
2021/03/21 02:57:07;;;;;;;4.90;4.30;;;;;;;8.05;70.66;100690.16;5101178;28;20474;-64
2021/03/21 02:59:37;;;;;;;6.23;4.63;;;;;;;8.36;69.81;100685.19;5082286;28;20444;-64
2021/03/21 03:02:08;;;;;;;5.10;4.33;;;;;;;7.90;71.15;100676.16;5081512;28;20467;-64
2021/03/21 03:04:37;;;;;;;4.93;4.53;;;;;;;8.03;70.67;100674.28;5102304;28;20518;-65
2021/03/21 03:07:09;;;;;;;5.57;4.70;;;;;;;7.96;71.05;100678.34;5097141;28;20468;-64
2021/03/21 03:09:39;;;;;;;5.57;4.97;;;;;;;8.06;70.57;100667.88;5081394;28;20456;-63
2021/03/21 03:12:09;;;;;;;5.80;5.20;;;;;;;8.00;71.05;100671.88;5084931;28;20476;-64
2021/03/21 03:14:39;;;;;;;6.10;5.10;;;;;;;8.15;70.27;100664.53;5102580;28;20431;-64
2021/03/21 03:17:07;;;;;;;7.63;4.30;;;;;;;8.19;70.65;100671.31;5098347;28;20484;-64
2021/03/21 03:19:41;;;;;;;5.67;4.43;;;;;;;7.94;71.08;100671.47;5081562;28;20452;-64
2021/03/21 03:22:15;;;;;;;5.70;5.03;;;;;;;7.92;71.57;100669.75;5091443;28;20482;-64
2021/03/21 03:24:52;;;;;;;5.37;4.80;;;;;;;7.82;72.10;100666.06;5102320;28;20494;-64
2021/03/21 03:27:24;;;;;;;5.53;5.00;;;;;;;7.76;72.47;100669.19;5081368;28;20471;-64
2021/03/21 03:29:56;;;;;;;6.67;4.83;;;;;;;8.01;71.39;100667.38;5081643;28;20459;-64
2021/03/21 03:32:24;;;;;;;5.07;4.57;;;;;;;8.04;71.60;100664.50;5081375;28;20467;-64
2021/03/21 03:34:53;;;;;;;6.90;5.23;;;;;;;7.99;71.89;100662.16;5082100;28;20443;-64
2021/03/21 03:37:20;;;;;;;7.13;5.73;;;;;;;8.00;71.83;100653.22;5080549;28;20475;-63
2021/03/21 03:39:46;;;;;;;5.47;4.47;;;;;;;7.64;73.09;100654.13;5083645;28;20500;-64
2021/03/21 03:42:19;;;;;;;5.97;5.20;;;;;;;8.20;71.40;100657.03;5102067;28;20475;-64
2021/03/21 03:44:54;;;;;;;4.70;4.30;;;;;;;8.15;71.58;100651.22;5100129;28;20496;-63
2021/03/21 03:47:24;;;;;;;4.30;3.90;;;;;;;8.07;71.80;100650.94;5081547;28;20475;-64
2021/03/21 03:49:58;;;;;;;5.33;4.83;;;;;;;8.05;71.59;100644.88;5099392;28;20462;-64
2021/03/21 03:52:33;;;;;;;4.77;4.27;;;;;;;8.28;70.66;100645.78;5100531;28;20479;-64
2021/03/21 03:55:04;;;;;;;4.80;4.07;;;;;;;8.19;71.21;100642.00;5082177;28;20840;-64
2021/03/21 03:57:35;;;;;;;4.70;4.00;;;;;;;8.24;71.01;100647.00;5081273;28;20494;-63
2021/03/21 04:00:17;;;;;;;5.57;4.97;;;;;;;8.15;71.07;100643.22;5099450;28;20873;-63
2021/03/21 04:02:53;;;;;;;6.20;4.30;;;;;;;8.13;71.00;100642.50;5098016;28;20456;-66
2021/03/21 04:05:24;;;;;;;4.80;4.30;;;;;;;8.51;70.00;100636.09;5080838;28;20556;-63
2021/03/21 04:07:57;;;;;;;5.93;5.33;;;;;;;8.28;70.72;100636.00;5084602;28;20926;-64
2021/03/21 04:10:28;;;;;;;6.23;5.63;;;;;;;8.36;70.85;100631.91;5100361;28;20516;-63
2021/03/21 04:13:04;;;;;;;5.00;4.50;;;;;;;8.18;71.36;100628.84;5100228;28;20440;-63
2021/03/21 04:15:34;;;;;;;6.13;5.50;;;;;;;8.12;71.44;100622.13;5100020;28;20519;-64
2021/03/21 04:18:06;;;;;;;6.23;5.50;;;;;;;8.26;71.41;100621.09;5100884;28;20447;-63
2021/03/21 04:20:35;;;;;;;7.40;5.73;;;;;;;8.40;71.12;100610.25;5099068;28;20471;-64
2021/03/21 04:23:05;;;;;;;6.77;6.07;;;;;;;8.44;70.97;100605.56;5080992;28;20452;-64
2021/03/21 04:25:35;;;;;;;6.67;5.93;;;;;;;8.27;71.76;100605.00;5080799;28;20475;-63
2021/03/21 04:28:04;;;;;;;8.00;5.40;;;;;;;8.35;71.40;100601.78;5100705;28;20439;-64
2021/03/21 04:30:35;;;;;;;7.10;6.03;;;;;;;8.26;71.70;100603.31;5099973;28;20490;-64
2021/03/21 04:33:03;;;;;;;7.10;5.40;;;;;;;8.27;71.59;100586.34;5101625;28;20431;-64
2021/03/21 04:35:33;;;;;;;6.10;5.27;;;;;;;7.98;72.73;100601.03;5092101;28;20470;-63
2021/03/21 04:38:02;;;;;;;6.30;5.40;;;;;;;8.30;71.66;100620.75;5100827;28;20455;-64
2021/03/21 04:40:29;;;;;;;5.60;5.10;;;;;;;8.48;71.20;100615.00;5098535;28;20463;-64
2021/03/21 04:42:58;;;;;;;5.80;4.70;;;;;;;8.21;72.22;100610.81;5097463;28;20449;-64
2021/03/21 04:45:27;;;;;;;5.50;4.93;;;;;;;8.46;71.51;100619.63;5080110;28;20463;-64
2021/03/21 04:47:58;;;;;;;6.37;4.27;;;;;;;8.37;71.74;100617.63;5087794;28;20541;-63
2021/03/21 04:50:25;;;;;;;4.90;4.40;;;;;;;8.40;71.53;100625.38;5101514;28;20474;-64
2021/03/21 04:52:53;;;;;;;5.83;4.93;;;;;;;8.55;70.83;100618.91;5102434;28;20502;-64
2021/03/21 04:55:25;;;;;;;8.43;4.10;;;;;;;8.55;70.88;100618.06;5084343;28;20440;-64
2021/03/21 04:57:56;;;;;;;4.10;3.70;;;;;;;8.17;71.27;100619.97;5090598;28;20446;-63
2021/03/21 05:00:27;;;;;;;5.20;4.70;;;;;;;8.29;70.80;100623.53;5104180;28;20458;-63
2021/03/21 05:03:05;;;;;;;3.90;3.50;;;;;;;8.36;70.49;100614.09;5103525;28;20439;-63
2021/03/21 05:05:34;;;;;;;4.30;3.90;;;;;;;8.43;69.98;100612.69;5085676;28;20501;-63
2021/03/21 05:08:05;;;;;;;4.63;4.23;;;;;;;8.46;69.78;100608.97;5084805;28;20451;-64
2021/03/21 05:10:32;;;;;;;6.10;4.20;;;;;;;8.46;69.19;100598.31;5083661;28;20487;-64
2021/03/21 05:13:03;;;;;;;4.93;3.80;;;;;;;8.44;69.50;100598.41;5089731;28;20443;-63
2021/03/21 05:15:32;;;;;;;5.17;3.27;;;;;;;8.29;69.33;100599.56;5104360;28;20466;-63
2021/03/21 05:18:10;;;;;;;3.83;3.50;;;;;;;8.55;68.54;100602.06;5104116;28;20458;-63
2021/03/21 05:20:41;;;;;;;6.63;4.10;;;;;;;8.40;69.21;100593.41;5096696;28;20509;-63
2021/03/21 05:23:17;;;;;;;4.80;3.60;;;;;;;8.52;68.68;100587.16;5102613;28;20459;-64
2021/03/21 05:25:48;;;;;;;6.87;4.47;;;;;;;8.40;69.62;100574.75;5103676;28;21034;-63
2021/03/21 05:28:20;;;;;;;5.10;4.60;;;;;;;8.21;69.98;100572.66;5098816;28;20925;-63
2021/03/21 05:30:46;;;;;;;5.20;3.83;;;;;;;8.68;68.18;100581.50;5083403;28;20486;-63
2021/03/21 05:33:14;;;;;;;5.17;4.17;;;;;;;8.59;67.87;100583.06;5088356;28;20443;-63
2021/03/21 05:35:40;;;;;;;7.20;4.50;;;;;;;8.82;67.37;100572.41;5084036;28;20483;-63
2021/03/21 05:38:15;;;;;;;6.67;4.10;;;;;;;8.94;66.68;100568.78;5101654;28;20466;-63
2021/03/21 05:41:15;;;;;;;5.90;3.80;;;;;;;8.91;66.35;100569.00;5101786;28;20552;-64
2021/03/21 05:44:06;;;;;;;5.73;3.50;;;;;;;9.09;65.49;100572.00;5104438;28;20454;-63
2021/03/21 05:47:02;;;;;;;4.60;3.97;;;;;;;8.90;65.74;100585.97;5084905;28;20840;-64
2021/03/21 05:50:01;;;;;;;5.83;3.60;;;;;;;9.22;64.99;100571.91;5100771;28;20459;-63
2021/03/21 05:53:06;;;;;;;3.87;3.47;;;;;;;8.79;65.61;100570.81;5079978;28;20554;-64
2021/03/21 05:55:42;;;;;;;6.60;3.70;;;;;;;9.01;64.70;100585.13;5080245;28;20463;-64
2021/03/21 05:58:42;;;;;;;4.73;3.50;;;;;;;9.01;64.69;100585.97;5068465;28;20449;-64
2021/03/21 06:01:24;;;;;;;5.27;3.03;;;;;;;9.02;65.09;100589.47;5005680;28;20482;-63
2021/03/21 06:04:55;;;;;;;5.53;3.30;;;;;;;9.08;65.41;100590.81;5001629;28;20491;-63
2021/03/21 06:07:59;;;;;;;4.37;4.00;;;;;;;8.99;65.98;100587.94;5017809;28;20485;-63
2021/03/21 06:10:43;;;;;;;6.33;3.83;;;;;;;8.90;66.69;100574.47;5018381;28;20473;-64
2021/03/21 06:13:19;;;;;;;6.67;4.47;;;;;;;8.73;67.25;100586.44;5020454;28;20450;-63
2021/03/21 06:16:23;;;;;;;10.17;5.13;;;;;;;8.59;67.31;100591.06;5020090;28;20512;-63
2021/03/21 06:19:01;;;;;;;11.60;5.30;;;;;;;8.92;66.42;100586.69;4996117;28;20454;-63
2021/03/21 06:21:52;;;;;;;6.10;5.50;;;;;;;9.01;65.68;100579.81;5002769;28;20475;-63
2021/03/21 06:24:29;;;;;;;6.60;5.00;;;;;;;8.98;65.81;100575.53;5017088;28;20450;-63
2021/03/21 06:27:05;;;;;;;5.40;4.47;;;;;;;9.15;65.55;100592.88;5012156;28;20470;-63
2021/03/21 06:29:46;;;;;;;5.37;4.53;;;;;;;9.29;64.84;100586.44;5032067;28;20449;-63
2021/03/21 06:32:34;;;;;;;4.77;3.30;;;;;;;9.20;65.10;100587.16;5020618;28;20486;-63
2021/03/21 06:35:08;;;;;;;5.33;2.90;;;;;;;9.22;65.23;100588.75;5046446;28;20451;-63
2021/03/21 06:38:00;;;;;;;3.93;3.03;;;;;;;9.31;64.90;100579.16;5095669;28;20470;-63
2021/03/21 06:40:43;;;;;;;3.53;2.70;;;;;;;9.52;64.33;100595.22;5102515;28;20528;-63
2021/03/21 06:44:03;;;;;;;3.80;2.90;;;;;;;9.67;63.56;100597.59;5088941;28;20512;-63
2021/03/21 06:46:51;;;;;;;4.03;2.63;;;;;;;9.58;64.11;100597.41;5032074;28;20489;-63
2021/03/21 06:49:41;;;;;;;6.23;2.60;;;;;;;9.43;64.48;100606.66;5036575;28;20481;-63
2021/03/21 06:52:19;;;;;;;3.47;1.90;;;;;;;9.47;65.15;100610.75;5036790;28;20501;-63
2021/03/21 06:54:53;;;;;;;4.80;2.40;;;;;;;9.45;65.17;100606.53;5037604;28;20453;-64
2021/03/21 06:57:56;;;;;;;8.20;2.53;;;;;;;9.34;65.87;100620.72;5036138;28;20503;-64
2021/03/21 07:00:54;;;;;;;2.43;2.20;;;;;;;9.02;67.03;100622.31;5035583;28;20461;-64
2021/03/21 07:03:54;;;;;;;2.60;2.10;;;;;;;8.60;67.60;100629.22;5010278;28;20583;-64
2021/03/21 07:07:05;;;;;;;3.13;2.30;;;;;;;8.59;67.01;100627.50;5036059;28;20473;-64
2021/03/21 07:10:07;;;;;;;4.80;2.33;;;;;;;8.96;65.50;100635.31;5026351;28;20453;-64
2021/03/21 07:13:09;;;;;;;2.20;2.00;;;;;;;8.79;64.56;100636.63;5036270;28;20465;-64
2021/03/21 07:15:45;;;;;;;5.93;1.90;;;;;;;8.80;63.23;100643.66;5036087;28;20473;-65
2021/03/21 07:18:56;;;;;;;4.93;1.60;;;;;;;8.73;62.63;100658.44;5037278;28;20430;-64
2021/03/21 07:22:17;;;;;;;7.90;1.97;;;;;;;8.60;61.94;100656.72;5024540;28;20482;-64
2021/03/21 07:25:19;;;;;;;6.33;1.57;;;;;;;8.53;62.62;100660.81;5066105;28;21132;-64
2021/03/21 07:28:16;;;;;;;5.20;1.97;;;;;;;8.82;62.16;100642.56;5068735;28;20464;-64
2021/03/21 07:30:52;;;;;;;5.63;2.10;;;;;;;8.36;62.50;100643.41;5056032;28;20479;-64
2021/03/21 07:33:31;;;;;;;7.20;2.33;;;;;;;8.57;62.11;100638.28;5056707;28;20440;-64
2021/03/21 07:36:19;;;;;;;10.70;2.73;;;;;;;8.80;60.85;100640.97;5054775;28;20491;-64
2021/03/21 07:39:09;;;;;;;13.53;2.43;;;;;;;9.00;60.17;100650.09;5052925;28;20448;-64
2021/03/21 07:41:45;;;;;;;6.40;1.90;;;;;;;9.10;59.60;100652.91;5055986;28;20473;-64
2021/03/21 07:44:26;;;;;;;10.63;2.10;;;;;;;8.91;59.81;100649.00;5056810;28;20896;-64
2021/03/21 07:47:05;;;;;;;9.23;2.30;;;;;;;8.91;59.35;100649.00;5055195;28;20477;-63
2021/03/21 07:49:45;;;;;;;15.53;2.73;;;;;;;9.09;59.07;100654.69;5061264;28;20447;-64
2021/03/21 07:52:33;;;;;;;9.07;2.20;;;;;;;9.07;58.83;100659.31;5073981;28;20480;-64
2021/03/21 07:55:05;;;;;;;10.43;2.10;;;;;;;9.02;59.10;100662.34;5083039;28;20451;-63
2021/03/21 07:57:41;;;;;;;9.80;1.90;;;;;;;8.99;58.90;100665.25;5093464;28;20471;-64
2021/03/21 08:00:10;;;;;;;9.63;2.30;;;;;;;8.77;59.86;100668.75;5078068;28;20494;-64
2021/03/21 08:02:37;;;;;;;12.30;3.60;;;;;;;9.06;58.32;100676.28;5094301;28;20448;-64
2021/03/21 08:05:10;;;;;;;12.13;2.87;;;;;;;9.14;58.94;100675.69;5095101;28;20516;-64
2021/03/21 08:07:38;;;;;;;14.00;3.17;;;;;;;8.93;58.66;100679.06;5095991;28;20467;-63
2021/03/21 08:10:19;;;;;;;10.37;2.60;;;;;;;9.14;58.67;100681.03;5100467;28;21040;-64
2021/03/21 08:12:49;;;;;;;13.63;3.00;;;;;;;8.94;58.49;100686.09;5100835;28;20447;-63
2021/03/21 08:15:17;;;;;;;15.40;2.97;;;;;;;8.96;57.71;100680.66;5101187;28;20451;-64
2021/03/21 08:17:48;;;;;;;15.53;2.97;;;;;;;9.07;57.26;100691.31;5100489;28;20461;-64
2021/03/21 08:20:18;;;;;;;13.97;3.20;;;;;;;9.19;57.13;100677.00;5098629;28;20453;-64
2021/03/21 08:22:45;;;;;;;14.83;3.03;;;;;;;9.13;56.10;100668.66;5085612;28;20452;-64
2021/03/21 08:25:21;;;;;;;14.80;3.60;;;;;;;9.05;55.70;100661.25;5084178;28;20504;-63
2021/03/21 08:27:48;;;;;;;20.90;4.00;;;;;;;9.15;55.41;100664.91;5089333;28;20446;-65
2021/03/21 08:30:16;;;;;;;17.87;4.97;;;;;;;8.73;55.26;100658.44;5091848;28;20467;-64
2021/03/21 08:32:56;;;;;;;16.40;3.73;;;;;;;9.13;54.40;100674.84;5103233;28;20453;-65
2021/03/21 08:35:25;;;;;;;14.20;3.07;;;;;;;8.75;55.57;100670.69;5098462;28;20442;-71
2021/03/21 08:37:52;;;;;;;16.13;3.90;;;;;;;8.80;55.96;100675.63;5099411;28;20451;-64
2021/03/21 08:40:29;;;;;;;16.70;4.70;;;;;;;9.11;55.10;100659.91;5101228;28;20454;-64
2021/03/21 08:43:10;;;;;;;22.73;3.50;;;;;;;9.15;55.27;100659.56;5097941;28;20450;-66
2021/03/21 08:45:38;;;;;;;15.00;3.60;;;;;;;9.05;55.17;100667.44;5097226;28;20493;-67
2021/03/21 08:48:32;;;;;;;12.30;3.70;;;;;;;9.08;54.79;100652.16;5099403;28;20485;-68
2021/03/21 08:51:01;;;;;;;14.57;3.10;;;;;;;9.31;54.17;100655.69;5081546;28;20494;-63
2021/03/21 08:53:32;;;;;;;18.43;4.80;;;;;;;9.25;55.20;100657.00;5082440;28;20448;-68
2021/03/21 08:56:18;;;;;;;18.97;4.20;;;;;;;9.48;53.62;100662.31;5088399;28;20525;-66
2021/03/21 08:58:45;;;;;;;18.70;4.27;;;;;;;8.96;54.74;100651.31;5095397;28;20447;-64
2021/03/21 09:01:18;;;;;;;20.87;4.27;;;;;;;9.01;54.13;100644.66;5098458;28;20489;-63
2021/03/21 09:03:45;;;;;;;20.43;3.90;;;;;;;8.86;54.82;100651.19;5090023;28;20536;-64
2021/03/21 09:06:31;;;;;;;15.97;4.10;;;;;;;9.31;53.96;100647.69;5095442;28;20483;-65
2021/03/21 09:09:20;;;;;;;21.37;4.50;;;;;;;9.17;55.05;100646.09;5099825;28;20442;-64
2021/03/21 09:11:50;;;;;;;18.30;3.83;;;;;;;9.21;54.14;100658.22;5101486;28;20516;-65
2021/03/21 09:14:26;;;;;;;18.43;4.03;;;;;;;8.98;55.05;100676.88;5101192;28;20500;-65
2021/03/21 09:16:57;;;;;;;21.10;5.07;;;;;;;8.62;54.80;100689.41;5101965;28;20474;-64
2021/03/21 09:19:25;;;;;;;25.60;6.83;;;;;;;8.74;55.65;100695.63;5098947;28;20530;-64
2021/03/21 09:21:52;;;;;;;24.40;4.47;;;;;;;8.69;55.00;100695.13;5100146;28;20485;-65
2021/03/21 09:24:23;;;;;;;28.10;5.70;;;;;;;8.73;54.71;100693.09;5095433;28;20451;-64
2021/03/21 09:26:51;;;;;;;17.13;4.60;;;;;;;8.62;54.57;100694.75;5092291;28;20479;-64
2021/03/21 09:29:24;;;;;;;19.03;4.57;;;;;;;8.90;54.02;100687.28;5089890;28;20473;-64
2021/03/21 09:31:54;;;;;;;26.93;6.13;;;;;;;9.03;53.71;100703.22;5100212;28;20479;-66
2021/03/21 09:34:25;;;;;;;24.40;6.00;;;;;;;8.65;53.50;100699.84;5095848;28;20907;-63
2021/03/21 09:36:56;;;;;;;16.53;4.20;;;;;;;8.89;52.83;100703.41;5101195;28;20475;-70
2021/03/21 09:39:25;;;;;;;15.27;5.23;;;;;;;8.65;53.24;100705.19;5099787;28;20473;-70
2021/03/21 09:41:53;;;;;;;21.70;4.87;;;;;;;8.56;53.40;100703.22;5101137;28;20837;-69
2021/03/21 09:44:39;;;;;;;21.77;4.53;;;;;;;8.78;53.18;100701.56;5096101;28;20444;-68
2021/03/21 09:47:19;;;;;;;15.10;4.83;;;;;;;8.59;53.27;100705.66;5084946;28;20537;-69
2021/03/21 09:49:53;;;;;;;19.83;4.50;;;;;;;8.90;52.38;100713.97;5096724;28;20477;-67
2021/03/21 09:52:29;;;;;;;21.03;4.10;;;;;;;8.64;53.58;100727.47;5100590;28;20474;-68
2021/03/21 09:55:01;;;;;;;25.60;4.87;;;;;;;8.50;53.19;100711.69;5101532;28;20484;-68
2021/03/21 09:57:42;;;;;;;21.73;5.20;;;;;;;8.70;53.27;100725.28;5100946;28;20481;-69
2021/03/21 10:00:13;;;;;;;25.17;5.23;;;;;;;8.76;53.12;100728.34;5101096;28;20465;-68
2021/03/21 10:02:44;;;;;;;23.60;4.40;;;;;;;8.43;53.71;100729.09;5086357;28;20451;-67
2021/03/21 10:05:17;;;;;;;21.73;5.93;;;;;;;8.88;52.76;100734.56;5086714;28;20494;-66
2021/03/21 10:07:47;;;;;;;19.37;6.00;;;;;;;9.11;52.76;100739.94;5086589;28;20475;-71
2021/03/21 10:10:18;;;;;;;16.60;4.80;;;;;;;8.80;52.95;100734.28;5095372;28;20455;-70
2021/03/21 10:12:46;;;;;;;21.43;5.53;;;;;;;8.80;52.86;100739.63;5081075;28;20919;-68
2021/03/21 10:15:16;;;;;;;17.63;5.50;;;;;;;9.03;52.19;100749.38;5082923;28;20539;-71
2021/03/21 10:17:53;;;;;;;30.10;4.50;;;;;;;9.42;52.45;100746.38;5095641;28;20475;-71
2021/03/21 10:20:23;;;;;;;30.73;5.33;;;;;;;9.54;51.47;100744.59;5091876;28;20451;-69
2021/03/21 10:22:57;;;;;;;23.83;5.70;;;;;;;9.00;53.00;100746.13;5098295;28;20454;-66
2021/03/21 10:25:49;;;;;;;23.20;5.33;;;;;;;8.75;53.06;100726.66;5079814;28;20479;-64
2021/03/21 10:28:36;;;;;;;20.27;4.70;;;;;;;9.36;51.94;100729.06;5086758;28;20455;-63
2021/03/21 10:31:28;;;;;;;23.30;6.00;;;;;;;8.99;52.83;100747.94;5079613;28;20479;-63
2021/03/21 10:33:55;;;;;;;22.60;5.47;;;;;;;9.51;51.88;100745.69;5094747;28;20435;-62
2021/03/21 10:36:43;;;;;;;19.13;5.70;;;;;;;9.35;52.29;100746.03;5099863;28;20547;-64
2021/03/21 10:39:11;;;;;;;28.10;4.83;;;;;;;9.50;51.51;100741.31;5100866;28;20454;-64
2021/03/21 10:42:01;;;;;;;39.07;5.17;;;;;;;9.58;51.95;100730.00;5087223;28;20488;-66
2021/03/21 10:44:57;;;;;;;24.37;6.97;;;;;;;9.77;51.03;100732.91;5079583;28;20432;-68
2021/03/21 10:47:47;;;;;;;22.80;5.20;;;;;;;9.80;50.84;100740.66;5093560;28;20572;-68
2021/03/21 10:50:43;;;;;;;16.17;5.83;;;;;;;9.58;51.31;100736.22;5095735;28;20455;-67
2021/03/21 10:53:21;;;;;;;23.33;5.47;;;;;;;9.86;50.75;100734.00;5091448;28;20455;-68
2021/03/21 10:56:08;;;;;;;17.10;5.30;;;;;;;9.90;50.89;100729.25;5085655;28;20482;-66
2021/03/21 10:59:07;;;;;;;20.70;4.73;;;;;;;10.06;50.10;100732.34;5098840;28;20530;-66
2021/03/21 11:01:38;;;;;;;29.20;6.20;;;;;;;10.32;49.35;100735.59;5099276;28;20516;-66
2021/03/21 11:04:25;;;;;;;19.87;5.93;;;;;;;9.77;49.82;100740.94;5093187;28;20494;-66
2021/03/21 11:06:57;;;;;;;18.00;5.00;;;;;;;9.82;49.48;100739.69;5092389;28;20479;-65
2021/03/21 11:09:31;;;;;;;24.07;5.37;;;;;;;9.51;51.04;100747.47;5084073;28;20488;-65
2021/03/21 11:11:57;;;;;;;23.07;4.43;;;;;;;9.30;51.31;100740.19;5079673;28;20499;-65
2021/03/21 11:14:29;;;;;;;24.23;5.20;;;;;;;9.66;50.23;100732.91;5099770;28;20435;-66
2021/03/21 11:16:58;;;;;;;23.87;6.60;;;;;;;9.64;50.25;100732.19;5099553;28;21004;-66
2021/03/21 11:19:27;;;;;;;19.50;6.20;;;;;;;10.04;49.02;100730.81;5097922;28;20443;-69
2021/03/21 11:21:54;;;;;;;25.43;6.40;;;;;;;9.66;49.30;100727.56;5098726;28;20562;-67
2021/03/21 11:24:26;;;;;;;31.10;4.33;;;;;;;9.38;50.13;100729.78;5099671;28;20829;-66
2021/03/21 11:26:53;;;;;;;27.00;6.60;;;;;;;9.96;49.14;100728.75;5098430;28;20551;-66
2021/03/21 11:29:29;;;;;;;33.23;5.67;;;;;;;9.21;50.14;100716.91;5098094;28;20443;-69
2021/03/21 11:32:02;;;;;;;26.57;5.47;;;;;;;9.70;49.43;100717.50;5085225;28;20480;-66
2021/03/21 11:34:33;;;;;;;25.60;5.70;;;;;;;9.17;50.75;100710.97;5079252;28;20448;-66
2021/03/21 11:37:03;;;;;;;18.70;5.20;;;;;;;9.96;49.13;100718.94;5081768;28;20626;-64
2021/03/21 11:39:34;;;;;;;32.83;5.73;;;;;;;10.24;48.38;100705.09;5079661;28;20452;-64
2021/03/21 11:42:01;;;;;;;34.07;7.80;;;;;;;10.09;48.00;100716.09;5089897;28;20673;-64
2021/03/21 11:44:29;;;;;;;20.57;4.93;;;;;;;9.99;48.76;100715.97;5099185;28;20435;-64
2021/03/21 11:47:10;;;;;;;23.37;5.00;;;;;;;10.14;48.16;100710.38;5100221;28;20506;-64
2021/03/21 11:49:37;;;;;;;37.50;7.60;;;;;;;10.23;48.69;100716.78;5095556;28;20446;-64
2021/03/21 11:52:05;;;;;;;25.13;5.40;;;;;;;9.85;49.06;100718.09;5099585;28;20924;-64
2021/03/21 11:54:33;;;;;;;26.40;5.37;;;;;;;10.05;48.30;100720.00;5092309;28;20459;-64
2021/03/21 11:57:09;;;;;;;25.60;4.80;;;;;;;10.22;47.86;100710.56;5079675;28;20487;-64
2021/03/21 11:59:39;;;;;;;28.10;5.50;;;;;;;10.22;47.15;100717.75;5081366;28;20478;-64
2021/03/21 12:02:30;;;;;;;27.23;4.57;;;;;;;9.96;47.26;100697.56;5079967;28;21059;-64
2021/03/21 12:04:59;;;;;;;23.73;5.37;;;;;;;10.00;47.59;100714.19;5093746;28;20482;-64
2021/03/21 12:07:28;;;;;;;20.73;5.17;;;;;;;10.08;47.51;100708.19;5099840;28;20479;-64